Address 0x4fcdaff8f186b0dea529314c4c32b0eb9c1f84a2

 
Txn Hash
Block
From
To
Value [Txn Fee]
0xbe6cadcc4d5718eea19b404366ece04939ea658abfe38993c1ed5e1de109859d82361852021-06-12 15:15:4412 days 5 hrs ago0x4fcdaff8f186b0dea529314c4c32b0eb9c1f84a2OUT PancakeSwap: Router v20 BNB0.00110276
0x00adf9474c333d629db6640bb8d28570c9f25e0296d4712c631c89e32e76235a82361662021-06-12 15:14:4712 days 5 hrs ago0x8444262ace21d056f83e2c3f15abb40de0b564e7 IN 0x4fcdaff8f186b0dea529314c4c32b0eb9c1f84a20.009 BNB0.000105
0xc0cbdd82164eef0817324a141cfcd3bb3dadf063e841311a6e046b585185dd6581836622021-06-10 19:21:0714 days 1 hr ago0x4fcdaff8f186b0dea529314c4c32b0eb9c1f84a2OUT Lightning Protocol: LIGHT Token0 BNB0.00022263
0x76a7a6a04901509b80f03ec842ee01e94b9bb52301d9de5ed1cda7591614373381836452021-06-10 19:20:1614 days 1 hr ago0x4fcdaff8f186b0dea529314c4c32b0eb9c1f84a2OUT 0x3e4cd6f7fdda6712ca93713fc1425ca69ec116de0 BNB0.00047077
0xb413c9791e2456f218da44facd0af758d5e8474be1e35df29ba1e06a28b5814b81835352021-06-10 19:14:4614 days 1 hr ago0x8444262ace21d056f83e2c3f15abb40de0b564e7 IN 0x4fcdaff8f186b0dea529314c4c32b0eb9c1f84a20.001 BNB0.000105
0xa612123bfb7187415551481e4b1aa41af71cc31f16ec11061867725d40c4b6fd76553072021-05-23 9:21:2932 days 11 hrs ago0x4fcdaff8f186b0dea529314c4c32b0eb9c1f84a2OUT0x5c03a0aa7264784c2714433c1bdb330adeb4e5cf9.997457130761099 BNB0.000105
0x21f8f2fc4fc5e16a1e942e284c20b5443bf76ab7c78c3917eae68639a542a98476552192021-05-23 9:17:0532 days 11 hrs ago0x4fcdaff8f186b0dea529314c4c32b0eb9c1f84a2OUT0x5c03a0aa7264784c2714433c1bdb330adeb4e5cf0.4 BNB0.000105
0xfebfcec97553bfe3162d53d2837468a9bc3846f7ac877e718397941957edd77767973552021-04-22 21:28:0262 days 23 hrs ago0x4fcdaff8f186b0dea529314c4c32b0eb9c1f84a2OUT PancakeSwap: Router0 BNB0.00197344
0xebbed0f9bbab8148449ac8b300209d06ec387aa30676428ede7a5de70c7bafe867972832021-04-22 21:24:1062 days 23 hrs ago0x4fcdaff8f186b0dea529314c4c32b0eb9c1f84a2OUT 0x139dd9203c8e46d15b3896814dc9424c5e5559fa0 BNB0.00022274
0xef4f20baa806c6bfb1cf292298041248f26894732315c31ce9f3c80eb28f039367972292021-04-22 21:21:2762 days 23 hrs ago0x4fcdaff8f186b0dea529314c4c32b0eb9c1f84a2OUT PancakeSwap: Router0 BNB0.00097879
0x37113400c3a0399bc33980994586d7d3e84f83c3a454049dc800aa1fc03d168d67972052021-04-22 21:20:1262 days 23 hrs ago0x4fcdaff8f186b0dea529314c4c32b0eb9c1f84a2OUT MoonPirate: MOONPIRATE Token0 BNB0.00022226
0xa6d75c9537fafb9274937c10bbba943d1197babeb1104f086c05fbf90d96412c67119662021-04-19 20:46:5466 days 11 mins ago0x4fcdaff8f186b0dea529314c4c32b0eb9c1f84a2OUT PancakeSwap: Router0.3 BNB0.00091558
0x403c117883efd8fdb8c31e9c3e0ec9a4feb7a0686c95d0d1c795f5103b30ec6867118782021-04-19 20:42:3066 days 16 mins ago0x4fcdaff8f186b0dea529314c4c32b0eb9c1f84a2OUT PancakeSwap: Router0.3 BNB0.00101949
0x862b6e685db2b9b75936b39a0dc7e0efbe37acda558a1dd1fd68ba12fa7cfbe564800122021-04-11 19:05:0274 days 1 hr ago0xa941e82f8644356e5df5bf86a9b22f592b194255 IN 0x4fcdaff8f186b0dea529314c4c32b0eb9c1f84a21.1 BNB0.000105
0xf57575b485d78890aef98ab3843a4bd0b73f162959cf2abe621cd2741d13d9c464222392021-04-09 18:52:3976 days 2 hrs ago0x4fcdaff8f186b0dea529314c4c32b0eb9c1f84a2OUT PancakeSwap: Router0 BNB0.00246383
0xf61116c6accb583437f47110a3de572582d9cf2c928b40751b7e06e29229415d63644022021-04-07 17:22:3178 days 3 hrs ago0x4fcdaff8f186b0dea529314c4c32b0eb9c1f84a2OUT PancakeSwap: Router0.490406821238277 BNB0.001018355
0x3d24cf31790702c157169680e04a0913b72551da6d7c222c3915085136a0968d63636462021-04-07 16:44:1878 days 4 hrs ago0x4fcdaff8f186b0dea529314c4c32b0eb9c1f84a2OUT PancakeSwap: Router0 BNB0.00076081
0xd64b8aa853681dc0257e2f20c12fe03cf988af5e2efd042dc19842e516a4f8d863636282021-04-07 16:43:2478 days 4 hrs ago0x4fcdaff8f186b0dea529314c4c32b0eb9c1f84a2OUT 0x26898013a78754022aa2165dabae3f01c8f6d9bd0 BNB0.000225465
0xc33a8a7671dd34d0798201345241ee5fb963d24e9dbf5a7b988f0602225c9afd62818282021-04-04 19:00:3481 days 1 hr ago0x4fcdaff8f186b0dea529314c4c32b0eb9c1f84a2OUT PancakeSwap: Router0.5 BNB0.0020834
0x428256a5a58b582da8df92485bf68e1e41bd65d38cbac2d7c080e922a59d722262814522021-04-04 18:41:1781 days 2 hrs ago0x4fcdaff8f186b0dea529314c4c32b0eb9c1f84a2OUT PancakeSwap: Router1.5 BNB0.0034208
0x4db9a6951bdb2cc3e27247aac696fa8de0e3e9c09bc8a4c59d027f64f397960762800842021-04-04 17:32:2181 days 3 hrs ago0x4fcdaff8f186b0dea529314c4c32b0eb9c1f84a2OUT PancakeSwap: Router0 BNB0.00233023
0x393f95fa6961da06cd2e140aea284001e636e59597ff6f0a4947d4453fff7bcc62800752021-04-04 17:31:5481 days 3 hrs ago0x4fcdaff8f186b0dea529314c4c32b0eb9c1f84a2OUT 0x5703f1d4a7a92a83c15f8e6b09a5e8d6a095bbcd0 BNB0.00044547
0x49edac6adc8802c7d68c5866acda2b97baa5a9ac64a936f18a303ff8dbe0590d62784772021-04-04 16:12:0081 days 4 hrs ago0x4fcdaff8f186b0dea529314c4c32b0eb9c1f84a2OUT PancakeSwap: Router1.109999201981272 BNB0.0039481
0xc42fa41347b2c5753db00b84020c80e290b66266c977a9c898f5dcedf2ed008062782452021-04-04 16:00:2481 days 4 hrs ago0x4fcdaff8f186b0dea529314c4c32b0eb9c1f84a2OUT 0x8a2bfc41e40c8299536a86cae18798aa2c02d18d1.5 BNB0.00084261
0x0e2cfe246882121d1ea4e6779e661b117bc3ee8f17fd31916f29145b4e69aed162724762021-04-04 10:50:2081 days 10 hrs ago0x4fcdaff8f186b0dea529314c4c32b0eb9c1f84a2OUT PancakeSwap: Router0 BNB0.00421556
[ Download CSV Export 
Latest 9 internal transactions
Parent Txn Hash Block From To Value
0xbe6cadcc4d5718eea19b404366ece04939ea658abfe38993c1ed5e1de109859d82361852021-06-12 15:15:4412 days 5 hrs ago PancakeSwap: Router v20x4fcdaff8f186b0dea529314c4c32b0eb9c1f84a20.093691370056545797 BNB
0xfebfcec97553bfe3162d53d2837468a9bc3846f7ac877e718397941957edd77767973552021-04-22 21:28:0262 days 23 hrs ago PancakeSwap: Router0x4fcdaff8f186b0dea529314c4c32b0eb9c1f84a20.174287501089650038 BNB
0xef4f20baa806c6bfb1cf292298041248f26894732315c31ce9f3c80eb28f039367972292021-04-22 21:21:2762 days 23 hrs ago PancakeSwap: Router0x4fcdaff8f186b0dea529314c4c32b0eb9c1f84a20.675707112635203867 BNB
0xf57575b485d78890aef98ab3843a4bd0b73f162959cf2abe621cd2741d13d9c464222392021-04-09 18:52:3976 days 2 hrs ago PancakeSwap: Router0x4fcdaff8f186b0dea529314c4c32b0eb9c1f84a20.762335007533448832 BNB
0xf61116c6accb583437f47110a3de572582d9cf2c928b40751b7e06e29229415d63644022021-04-07 17:22:3178 days 3 hrs ago PancakeSwap: Router0x4fcdaff8f186b0dea529314c4c32b0eb9c1f84a20.050378351053962885 BNB
0x3d24cf31790702c157169680e04a0913b72551da6d7c222c3915085136a0968d63636462021-04-07 16:44:1878 days 4 hrs ago PancakeSwap: Router0x4fcdaff8f186b0dea529314c4c32b0eb9c1f84a21.098763347525396015 BNB
0x4db9a6951bdb2cc3e27247aac696fa8de0e3e9c09bc8a4c59d027f64f397960762800842021-04-04 17:32:2181 days 3 hrs ago PancakeSwap: Router0x4fcdaff8f186b0dea529314c4c32b0eb9c1f84a20.66741087565620971 BNB
0x49edac6adc8802c7d68c5866acda2b97baa5a9ac64a936f18a303ff8dbe0590d62784772021-04-04 16:12:0081 days 4 hrs ago PancakeSwap: Router0x4fcdaff8f186b0dea529314c4c32b0eb9c1f84a20.10686447814254549 BNB
0x0e2cfe246882121d1ea4e6779e661b117bc3ee8f17fd31916f29145b4e69aed162724762021-04-04 10:50:2081 days 10 hrs ago PancakeSwap: Router0x4fcdaff8f186b0dea529314c4c32b0eb9c1f84a29.937361300344232587 BNB
[ Download CSV Export 
Loading

Contract Name:
0 BNB

Compiler Version
0

Optimization Enabled:
0 BNB

Other Settings:
-NA-
Block Transaction Gas Used Reward
Age Block Fee Address BC Fee Address Voting Power Jailed Incoming
Block Uncle Number Difficulty Gas Used Reward
Loading
Loading
Make sure to use the "Vote Down" button for any spammy posts, and the "Vote Up" for interesting conversations.